Airfield :
LOGIN :

Register | Disclaimer

   EN    FR    IT 

 










Legend :    VFR   Marginal VFR   IFR   Intensive IFR   Very Intensive IFR
Visi :
Ceiling :
>= 8 km
>= 3000ft
5 to 8 km
1000 to 3000 ft
1500m to 5 km
500 to 1000 ft
800 to 1500m
200 to 500 ft
< 800m
< 200 ft
Symbols :   Thunderstorms  Fog  Heavy snow  Heavy precipitations  Wind > 20 kt
SIGMETs :     Misc.  Thunderstorms  Icing  Turbulence  Mountain Waves  Volcanic Ashes







- Airport Elevation : 245 ft
- IATA code : BIQ
- Download approach charts


LFBZ - Biarritz

CURRENT METAR :
  • 171130Z AUTO 20005KT 120V280 CAVOK 21/M04 Q1020 NOSIG

EXPIRED METARs :
  • 171100Z AUTO 20007KT 160V270 CAVOK 21/M08 Q1020 TEMPO 18015G30KT
  • 171030Z AUTO 20008KT 140V270 CAVOK 21/M07 Q1020 TEMPO 18015G30KT
  • 171000Z AUTO 20005KT 140V270 CAVOK 20/M07 Q1020 TEMPO 18015G30KT
  • 170930Z AUTO 18005KT 100V240 CAVOK 20/M08 Q1021 TEMPO 18015G30KT
  • 170900Z AUTO VRB03KT CAVOK 19/M07 Q1020 TEMPO 18015G30KT

TAF TAF LFBZ
Valid from the 17 at 06:00 until the 18 at 06:00 UTC


170500Z 1706/1806 18010KT CAVOK
TEMPO 1706/1712 18015G30KT
BECMG 1716/1718 12005KT
TEMPO 1800/1806 18010KT
No reported NOTAMs for that airfield.



MET'MAP, your aeronautical weather chart ! - Copyright ORBIFLY December 2007 - Disclaimer

ORBIFLY MET'MAP TEAM :

Programming & Development : Alexandra Zaïnal
Concept & Development : Baudouin d'Aumeries
Co-Development & Prog : Marc-Olivier Méhu
Technical & hardware support : Manuel Goepfert

Contact : metmap@orbifly.com




SOURCES & CREDITS :

   NOAA